Time;durP1;ratioP1;P1;durP2;ratioP2;P2;SDS_P1;SDS_P2;PMS_P1;PMS_P2;Temp;Humidity;BMP_temperature;BMP_pressure;BME280_temperature;BME280_humidity;BME280_pressure;Samples;Min_cycle;Max_cycle;Signal;HPM_P1;HPM_P2
2022/03/31 00:00:16;;;;;;;77.60;15.40;;;;;;;;;;5112246;28;20468;-72
2022/03/31 00:02:44;;;;;;;74.47;13.23;;;;;;;;;;5112125;28;20820;-72
2022/03/31 00:05:11;;;;;;;74.50;13.63;;;;;;;;;;5111085;28;21012;-72
2022/03/31 00:07:47;;;;;;;76.73;15.57;;;;;;;;;;5111508;28;20459;-72
2022/03/31 00:10:15;;;;;;;73.27;13.57;;;;;;;;;;5112193;28;20712;-73
2022/03/31 00:12:42;;;;;;;75.90;14.90;;;;;;;;;;5112386;28;20548;-72
2022/03/31 00:15:09;;;;;;;74.23;13.63;;;;;;;;;;5112684;28;20823;-69
2022/03/31 00:17:38;;;;;;;75.60;13.57;;;;;;;;;;5111309;28;20505;-73
2022/03/31 00:20:05;;;;;;;76.97;14.70;;;;;;;;;;5111611;28;20448;-72
2022/03/31 00:22:32;;;;;;;77.00;14.33;;;;;;;;;;5111688;28;20534;-72
2022/03/31 00:24:59;;;;;;;76.90;15.33;;;;;;;;;;5111947;28;20481;-72
2022/03/31 00:27:26;;;;;;;74.90;14.80;;;;;;;;;;5111475;28;20484;-73
2022/03/31 00:29:54;;;;;;;77.10;14.73;;;;;;;;;;5111976;28;20496;-72
2022/03/31 00:32:22;;;;;;;75.30;14.80;;;;;;;;;;5112186;28;20446;-72
2022/03/31 00:34:50;;;;;;;75.63;14.13;;;;;;;;;;5111423;28;20452;-73
2022/03/31 00:37:18;;;;;;;76.33;14.37;;;;;;;;;;5111034;28;21009;-72
2022/03/31 00:39:45;;;;;;;73.17;13.20;;;;;;;;;;5111993;28;20444;-72
2022/03/31 00:42:13;;;;;;;78.83;15.30;;;;;;;;;;5112055;28;20537;-72
2022/03/31 00:44:40;;;;;;;74.82;13.52;;;;;;;;;;5111894;28;20490;-72
2022/03/31 00:47:07;;;;;;;74.90;13.80;;;;;;;;;;5111538;28;20231;-71
2022/03/31 00:49:34;;;;;;;74.40;13.37;;;;;;;;;;5111036;28;20259;-72
2022/03/31 00:52:03;;;;;;;74.83;13.60;;;;;;;;;;5111802;28;20446;-72
2022/03/31 00:54:31;;;;;;;72.87;12.67;;;;;;;;;;5111971;28;20535;-71
2022/03/31 00:56:58;;;;;;;75.82;13.60;;;;;;;;;;5111581;28;20475;-72
2022/03/31 00:59:26;;;;;;;73.40;13.18;;;;;;;;;;5111001;28;20685;-72
2022/03/31 01:01:53;;;;;;;73.55;13.60;;;;;;;;;;5111950;28;20262;-72
2022/03/31 01:04:21;;;;;;;72.27;12.90;;;;;;;;;;5107348;28;20677;-71
2022/03/31 01:06:49;;;;;;;74.20;13.90;;;;;;;;;;5111748;28;20471;-72
2022/03/31 01:09:18;;;;;;;72.70;12.93;;;;;;;;;;5111020;28;20847;-72
2022/03/31 01:11:46;;;;;;;72.00;14.00;;;;;;;;;;5111592;28;20462;-71
2022/03/31 01:14:13;;;;;;;71.10;12.93;;;;;;;;;;5111681;28;20452;-72
2022/03/31 01:16:40;;;;;;;69.63;12.27;;;;;;;;;;5112759;28;20554;-72
2022/03/31 01:19:08;;;;;;;71.43;11.93;;;;;;;;;;5114677;28;20443;-72
2022/03/31 01:21:37;;;;;;;72.77;12.73;;;;;;;;;;5115325;28;20204;-71
2022/03/31 01:24:07;;;;;;;71.85;12.13;;;;;;;;;;5115085;28;20455;-72
2022/03/31 01:26:34;;;;;;;73.40;12.50;;;;;;;;;;5115035;28;20227;-72
2022/03/31 01:29:01;;;;;;;75.67;14.33;;;;;;;;;;5114578;28;20481;-71
2022/03/31 01:31:28;;;;;;;72.17;12.33;;;;;;;;;;5115147;28;20471;-72
2022/03/31 01:33:56;;;;;;;73.32;13.05;;;;;;;;;;5115021;28;20435;-72
2022/03/31 01:36:23;;;;;;;70.37;11.57;;;;;;;;;;5114863;28;20213;-72
2022/03/31 01:38:50;;;;;;;74.33;13.37;;;;;;;;;;5114291;28;20540;-72
2022/03/31 01:41:19;;;;;;;74.90;13.27;;;;;;;;;;5114721;27;20491;-72
2022/03/31 01:43:46;;;;;;;70.47;12.23;;;;;;;;;;5114695;28;20479;-72
2022/03/31 01:46:13;;;;;;;72.23;12.23;;;;;;;;;;5114754;28;20494;-71
2022/03/31 01:48:40;;;;;;;71.38;13.02;;;;;;;;;;5114133;28;20521;-72
2022/03/31 01:51:07;;;;;;;76.10;13.07;;;;;;;;;;5114791;28;20207;-73
2022/03/31 01:53:35;;;;;;;73.70;14.27;;;;;;;;;;5114728;28;20537;-73
2022/03/31 01:56:03;;;;;;;71.57;12.48;;;;;;;;;;5118070;28;20240;-72
2022/03/31 01:58:32;;;;;;;72.70;13.30;;;;;;;;;;5118720;28;20263;-73
2022/03/31 02:00:59;;;;;;;73.40;12.82;;;;;;;;;;5116765;28;20450;-74
2022/03/31 02:03:35;;;;;;;71.90;12.55;;;;;;;;;;5115488;28;20214;-74
2022/03/31 02:06:02;;;;;;;71.25;12.23;;;;;;;;;;5116315;28;20208;-73
2022/03/31 02:08:30;;;;;;;70.97;11.75;;;;;;;;;;5116581;28;20255;-73
2022/03/31 02:10:57;;;;;;;69.65;11.75;;;;;;;;;;5119772;28;20550;-73
2022/03/31 02:13:25;;;;;;;75.60;13.20;;;;;;;;;;5118910;28;20211;-73
2022/03/31 02:15:54;;;;;;;71.75;11.75;;;;;;;;;;5118930;28;20240;-73
2022/03/31 02:18:21;;;;;;;72.85;13.00;;;;;;;;;;5117351;28;20228;-73
2022/03/31 02:20:49;;;;;;;75.57;13.47;;;;;;;;;;5115826;28;20201;-73
2022/03/31 02:23:16;;;;;;;74.38;13.07;;;;;;;;;;5117136;28;20514;-73
2022/03/31 02:25:43;;;;;;;72.90;12.95;;;;;;;;;;5115088;28;20300;-71
2022/03/31 02:28:10;;;;;;;72.47;12.88;;;;;;;;;;5112613;28;20288;-72
2022/03/31 02:30:38;;;;;;;75.47;14.55;;;;;;;;;;5113800;28;20216;-72
2022/03/31 02:33:07;;;;;;;74.77;13.53;;;;;;;;;;5114097;28;20203;-73
2022/03/31 02:35:34;;;;;;;71.72;12.80;;;;;;;;;;5116197;28;20482;-73
2022/03/31 02:38:01;;;;;;;72.00;13.05;;;;;;;;;;5113438;28;20608;-72
2022/03/31 02:40:28;;;;;;;72.20;12.82;;;;;;;;;;5113818;28;20242;-73
2022/03/31 02:42:56;;;;;;;74.22;13.20;;;;;;;;;;5113730;28;20267;-71
2022/03/31 02:45:23;;;;;;;73.95;13.45;;;;;;;;;;5113920;28;20201;-72
2022/03/31 02:47:50;;;;;;;73.80;15.00;;;;;;;;;;5112708;28;20225;-72
2022/03/31 02:50:19;;;;;;;75.80;14.55;;;;;;;;;;5113786;28;20508;-72
2022/03/31 02:55:31;;;;;;;72.80;13.98;;;;;;;;;;5113497;28;20196;-71
2022/03/31 02:58:01;;;;;;;70.90;13.27;;;;;;;;;;5113021;28;20232;-71
2022/03/31 03:00:30;;;;;;;74.35;14.82;;;;;;;;;;5113188;28;20592;-72
2022/03/31 03:02:58;;;;;;;74.20;13.38;;;;;;;;;;5113357;28;20216;-70
2022/03/31 03:05:26;;;;;;;74.32;14.70;;;;;;;;;;5113473;28;20259;-72
2022/03/31 03:07:54;;;;;;;72.85;12.95;;;;;;;;;;5112437;28;20663;-71
2022/03/31 03:10:21;;;;;;;71.18;12.98;;;;;;;;;;5112791;28;20595;-72
2022/03/31 03:12:49;;;;;;;73.50;13.25;;;;;;;;;;5112906;27;20679;-72
2022/03/31 03:15:17;;;;;;;72.55;14.27;;;;;;;;;;5113438;28;20200;-71
2022/03/31 03:17:46;;;;;;;75.30;14.95;;;;;;;;;;5112247;28;20223;-72
2022/03/31 03:20:14;;;;;;;72.38;14.68;;;;;;;;;;5113043;28;20560;-72
2022/03/31 03:22:44;;;;;;;75.93;14.25;;;;;;;;;;5112920;28;20300;-72
2022/03/31 03:25:12;;;;;;;76.45;13.70;;;;;;;;;;5112859;28;20203;-72
2022/03/31 03:27:39;;;;;;;73.57;13.20;;;;;;;;;;5111833;28;20234;-72
2022/03/31 03:30:08;;;;;;;74.93;14.13;;;;;;;;;;5112567;28;20224;-72
2022/03/31 03:32:36;;;;;;;73.97;13.82;;;;;;;;;;5112674;28;20220;-71
2022/03/31 03:35:03;;;;;;;72.90;13.70;;;;;;;;;;5112920;28;20208;-72
2022/03/31 03:37:30;;;;;;;74.93;15.10;;;;;;;;;;5112322;28;20553;-72
2022/03/31 03:40:02;;;;;;;72.07;13.63;;;;;;;;;;5111650;28;20745;-72
2022/03/31 03:42:29;;;;;;;73.03;14.25;;;;;;;;;;5112493;28;20587;-71
2022/03/31 03:44:56;;;;;;;72.70;13.27;;;;;;;;;;5112531;28;20204;-72
2022/03/31 03:47:24;;;;;;;72.50;13.85;;;;;;;;;;5111875;28;20339;-72
2022/03/31 03:49:51;;;;;;;73.03;13.60;;;;;;;;;;5112627;28;20810;-71
2022/03/31 03:52:18;;;;;;;73.85;15.02;;;;;;;;;;5112276;28;20208;-72
2022/03/31 03:54:46;;;;;;;72.40;13.90;;;;;;;;;;5112303;28;20214;-72
2022/03/31 03:57:14;;;;;;;71.78;13.45;;;;;;;;;;5111798;28;20228;-72
2022/03/31 03:59:41;;;;;;;76.40;14.35;;;;;;;;;;5112508;28;20207;-72
2022/03/31 04:02:09;;;;;;;73.75;14.43;;;;;;;;;;5113023;28;20295;-72
2022/03/31 04:04:36;;;;;;;72.32;14.13;;;;;;;;;;5112186;28;20199;-71
2022/03/31 04:07:03;;;;;;;73.32;14.40;;;;;;;;;;5112101;28;20673;-72
2022/03/31 04:09:30;;;;;;;76.15;15.40;;;;;;;;;;5111746;28;20230;-72
2022/03/31 04:11:57;;;;;;;72.13;13.57;;;;;;;;;;5112346;28;20294;-70
2022/03/31 04:14:26;;;;;;;73.25;15.10;;;;;;;;;;5112133;28;20211;-72
2022/03/31 04:16:55;;;;;;;74.65;14.48;;;;;;;;;;5112016;28;20318;-70
2022/03/31 04:19:22;;;;;;;74.00;13.25;;;;;;;;;;5111325;28;20295;-71
2022/03/31 04:21:50;;;;;;;71.80;13.35;;;;;;;;;;5112050;28;20299;-72
2022/03/31 04:24:17;;;;;;;74.40;14.18;;;;;;;;;;5112237;28;20300;-72
2022/03/31 04:26:44;;;;;;;72.72;13.25;;;;;;;;;;5112157;28;20256;-72
2022/03/31 04:29:11;;;;;;;74.68;14.48;;;;;;;;;;5111173;28;20228;-72
2022/03/31 04:31:42;;;;;;;72.47;15.10;;;;;;;;;;5112062;28;20222;-71
2022/03/31 04:34:09;;;;;;;71.05;13.75;;;;;;;;;;5111912;28;20210;-72
2022/03/31 04:36:37;;;;;;;73.35;14.32;;;;;;;;;;5112440;28;20201;-71
2022/03/31 04:39:04;;;;;;;72.40;13.07;;;;;;;;;;5111438;28;20232;-72
2022/03/31 04:41:31;;;;;;;72.28;13.45;;;;;;;;;;5111920;28;20200;-72
2022/03/31 04:43:58;;;;;;;72.80;14.48;;;;;;;;;;5111900;28;20212;-71
2022/03/31 04:46:26;;;;;;;74.57;13.73;;;;;;;;;;5111806;28;20310;-72
2022/03/31 04:48:54;;;;;;;72.72;13.57;;;;;;;;;;5111224;28;20208;-71
2022/03/31 04:51:22;;;;;;;72.63;13.10;;;;;;;;;;5112474;28;20291;-72
2022/03/31 04:53:49;;;;;;;71.90;13.35;;;;;;;;;;5115865;28;20232;-72
2022/03/31 04:56:16;;;;;;;75.60;14.15;;;;;;;;;;5115804;28;20286;-72
2022/03/31 04:58:44;;;;;;;77.22;14.88;;;;;;;;;;5114846;28;20239;-72
2022/03/31 05:01:11;;;;;;;71.95;12.63;;;;;;;;;;5115594;28;20639;-72
2022/03/31 05:03:38;;;;;;;71.70;14.30;;;;;;;;;;5115790;27;20208;-72
2022/03/31 05:06:07;;;;;;;71.75;14.02;;;;;;;;;;5115612;28;20200;-72
2022/03/31 05:08:34;;;;;;;71.63;12.77;;;;;;;;;;5114863;28;20659;-72
2022/03/31 05:11:02;;;;;;;72.03;14.25;;;;;;;;;;5115391;28;20261;-72
2022/03/31 05:13:29;;;;;;;72.35;14.38;;;;;;;;;;5115268;27;20236;-72
2022/03/31 05:15:57;;;;;;;74.32;15.27;;;;;;;;;;5115550;27;20581;-72
2022/03/31 05:18:24;;;;;;;79.97;13.43;;;;;;;;;;5114924;28;20319;-74
2022/03/31 05:20:51;;;;;;;73.97;14.73;;;;;;;;;;5115241;27;20232;-72
2022/03/31 05:23:20;;;;;;;75.25;14.70;;;;;;;;;;5115190;28;20210;-73
2022/03/31 05:25:48;;;;;;;78.65;15.32;;;;;;;;;;5115475;28;20214;-73
2022/03/31 05:28:15;;;;;;;72.50;14.07;;;;;;;;;;5115151;28;20280;-71
2022/03/31 05:30:43;;;;;;;73.25;14.68;;;;;;;;;;5114879;28;20280;-73
2022/03/31 05:33:11;;;;;;;78.22;16.70;;;;;;;;;;5114957;28;20206;-72
2022/03/31 05:35:38;;;;;;;78.53;16.35;;;;;;;;;;5114984;28;20203;-73
2022/03/31 05:38:06;;;;;;;74.75;15.10;;;;;;;;;;5114438;28;20256;-73
2022/03/31 05:40:35;;;;;;;81.45;17.73;;;;;;;;;;5115381;28;20256;-70
2022/03/31 05:43:02;;;;;;;74.30;15.82;;;;;;;;;;5114543;28;20687;-72
2022/03/31 05:45:30;;;;;;;75.20;16.83;;;;;;;;;;5114895;28;20820;-73
2022/03/31 05:47:57;;;;;;;75.75;15.05;;;;;;;;;;5114049;28;20229;-72
2022/03/31 05:50:24;;;;;;;76.30;15.95;;;;;;;;;;5114540;28;20224;-72
2022/03/31 05:52:51;;;;;;;75.10;15.07;;;;;;;;;;5114426;28;20300;-72
2022/03/31 05:55:19;;;;;;;75.60;15.98;;;;;;;;;;5114628;28;20210;-72
2022/03/31 05:57:48;;;;;;;74.40;14.77;;;;;;;;;;5113855;28;20595;-72
2022/03/31 06:00:17;;;;;;;74.72;15.00;;;;;;;;;;5114611;28;20537;-73
2022/03/31 06:02:45;;;;;;;76.45;15.75;;;;;;;;;;5113423;28;20677;-72
2022/03/31 06:05:12;;;;;;;76.07;15.48;;;;;;;;;;5114459;28;20208;-73
2022/03/31 06:07:39;;;;;;;77.55;15.43;;;;;;;;;;5113680;28;20626;-71
2022/03/31 06:10:06;;;;;;;74.93;15.00;;;;;;;;;;5114590;28;20224;-71
2022/03/31 06:12:34;;;;;;;73.30;14.10;;;;;;;;;;5114367;28;20290;-73
2022/03/31 06:15:02;;;;;;;76.38;14.40;;;;;;;;;;5114327;28;20268;-72
2022/03/31 06:17:30;;;;;;;74.28;14.63;;;;;;;;;;5113514;27;20232;-73
2022/03/31 06:19:57;;;;;;;74.83;13.70;;;;;;;;;;5114095;28;20231;-72
2022/03/31 06:22:24;;;;;;;75.15;15.13;;;;;;;;;;5113820;28;20446;-73
2022/03/31 06:24:51;;;;;;;76.77;14.57;;;;;;;;;;5114134;27;20715;-72
2022/03/31 06:27:19;;;;;;;75.80;14.85;;;;;;;;;;5112955;28;20549;-73
2022/03/31 06:29:46;;;;;;;74.27;14.30;;;;;;;;;;5114041;28;20212;-73
2022/03/31 06:32:14;;;;;;;73.23;14.33;;;;;;;;;;5113916;28;20458;-73
2022/03/31 06:34:41;;;;;;;73.87;14.20;;;;;;;;;;5113791;28;20460;-73
2022/03/31 06:37:08;;;;;;;74.27;14.33;;;;;;;;;;5113236;28;20991;-72
2022/03/31 06:39:36;;;;;;;71.60;14.77;;;;;;;;;;5113999;28;20533;-73
2022/03/31 06:42:04;;;;;;;74.87;14.33;;;;;;;;;;5114051;28;20288;-73
2022/03/31 06:44:31;;;;;;;73.30;14.00;;;;;;;;;;5113985;28;20811;-73
2022/03/31 06:46:58;;;;;;;73.03;14.53;;;;;;;;;;5113921;28;21049;-73
2022/03/31 06:49:27;;;;;;;73.47;13.93;;;;;;;;;;5113178;28;20451;-72
2022/03/31 06:51:55;;;;;;;76.23;14.40;;;;;;;;;;5114285;28;20882;-73
2022/03/31 06:54:22;;;;;;;74.80;14.70;;;;;;;;;;5113839;28;20454;-71
2022/03/31 06:56:51;;;;;;;75.57;14.50;;;;;;;;;;5113388;28;20471;-73
2022/03/31 06:59:20;;;;;;;74.97;13.73;;;;;;;;;;5112648;28;20455;-73
2022/03/31 07:01:47;;;;;;;73.00;14.80;;;;;;;;;;5113369;28;20851;-73
2022/03/31 07:04:15;;;;;;;73.87;14.60;;;;;;;;;;5113260;28;20834;-73
2022/03/31 07:06:43;;;;;;;72.40;13.95;;;;;;;;;;5113112;28;20562;-73
2022/03/31 07:09:10;;;;;;;73.80;14.53;;;;;;;;;;5112466;28;20202;-73
2022/03/31 07:11:38;;;;;;;77.18;15.20;;;;;;;;;;5113141;28;20487;-73
2022/03/31 07:14:05;;;;;;;71.67;13.37;;;;;;;;;;5113250;28;20210;-73
2022/03/31 07:16:33;;;;;;;72.07;14.23;;;;;;;;;;5113158;28;20951;-72
2022/03/31 07:19:01;;;;;;;78.17;14.50;;;;;;;;;;5110782;28;20490;-72
2022/03/31 07:21:28;;;;;;;73.00;13.43;;;;;;;;;;5112294;28;20460;-73
2022/03/31 07:23:57;;;;;;;75.20;15.53;;;;;;;;;;5112180;28;20488;-73
2022/03/31 07:26:24;;;;;;;73.27;12.63;;;;;;;;;;5109866;28;20867;-71
2022/03/31 07:28:52;;;;;;;74.07;14.70;;;;;;;;;;5101274;28;20444;-74
2022/03/31 07:31:19;;;;;;;74.47;14.00;;;;;;;;;;5112355;28;20507;-72
2022/03/31 07:33:46;;;;;;;74.80;15.83;;;;;;;;;;5110118;28;20451;-73
2022/03/31 07:36:13;;;;;;;72.87;15.13;;;;;;;;;;5108794;28;20826;-73
2022/03/31 07:38:41;;;;;;;73.67;15.07;;;;;;;;;;5111507;28;20475;-73
2022/03/31 07:41:09;;;;;;;72.50;14.53;;;;;;;;;;5112741;28;20502;-73
2022/03/31 07:43:36;;;;;;;73.97;14.20;;;;;;;;;;5112384;28;21027;-73
2022/03/31 07:46:04;;;;;;;71.07;12.83;;;;;;;;;;5112384;28;20881;-73
2022/03/31 07:48:31;;;;;;;72.13;14.23;;;;;;;;;;5112030;28;20788;-73
2022/03/31 07:50:59;;;;;;;76.30;15.23;;;;;;;;;;5112404;28;21078;-74
2022/03/31 07:53:27;;;;;;;74.30;15.53;;;;;;;;;;5112266;28;20937;-72
2022/03/31 07:55:54;;;;;;;77.50;16.40;;;;;;;;;;5112462;28;21066;-73
2022/03/31 07:58:23;;;;;;;73.87;14.73;;;;;;;;;;5111583;28;20474;-72
2022/03/31 08:00:52;;;;;;;75.97;15.90;;;;;;;;;;5092232;28;20541;-73
2022/03/31 08:03:19;;;;;;;74.57;14.37;;;;;;;;;;5093581;28;20510;-74
2022/03/31 08:05:47;;;;;;;75.93;16.07;;;;;;;;;;5092859;28;20874;-72
2022/03/31 08:08:14;;;;;;;74.17;15.37;;;;;;;;;;5091019;28;20465;-72
2022/03/31 08:10:41;;;;;;;76.30;15.13;;;;;;;;;;5091609;28;21080;-71
2022/03/31 08:13:09;;;;;;;75.20;15.23;;;;;;;;;;5092481;28;20549;-72
2022/03/31 08:15:38;;;;;;;75.47;15.17;;;;;;;;;;5091655;28;20455;-71
2022/03/31 08:18:06;;;;;;;75.37;15.40;;;;;;;;;;5091663;28;20478;-73
2022/03/31 08:20:33;;;;;;;74.67;15.70;;;;;;;;;;5099704;28;20877;-75
2022/03/31 08:23:00;;;;;;;72.80;13.67;;;;;;;;;;5094288;28;20520;-75
2022/03/31 08:25:27;;;;;;;75.10;15.10;;;;;;;;;;5095015;28;20488;-74
2022/03/31 08:27:54;;;;;;;78.63;16.03;;;;;;;;;;5099461;28;20500;-70
2022/03/31 08:30:23;;;;;;;75.13;13.87;;;;;;;;;;5095560;28;20544;-71
2022/03/31 08:32:52;;;;;;;71.00;13.20;;;;;;;;;;5098899;28;20445;-73
2022/03/31 08:35:19;;;;;;;75.00;15.70;;;;;;;;;;5098638;28;20556;-73
2022/03/31 08:37:47;;;;;;;75.37;15.17;;;;;;;;;;5095123;28;20567;-71
2022/03/31 08:40:15;;;;;;;75.57;15.10;;;;;;;;;;5099197;28;20902;-74
2022/03/31 08:42:43;;;;;;;76.47;14.77;;;;;;;;;;5096609;28;20461;-69
2022/03/31 08:45:12;;;;;;;74.50;15.07;;;;;;;;;;5095545;28;20449;-74
2022/03/31 08:47:41;;;;;;;71.97;15.13;;;;;;;;;;5094691;28;20981;-73
2022/03/31 08:50:11;;;;;;;72.37;13.70;;;;;;;;;;5096348;28;20445;-73
2022/03/31 08:52:38;;;;;;;73.00;14.57;;;;;;;;;;5097250;28;20473;-71
2022/03/31 08:55:06;;;;;;;74.70;14.77;;;;;;;;;;5101145;28;20497;-72
2022/03/31 08:57:40;;;;;;;74.27;14.57;;;;;;;;;;5102705;28;20537;-73
2022/03/31 09:00:07;;;;;;;76.67;14.80;;;;;;;;;;5102886;28;20513;-73
2022/03/31 09:02:35;;;;;;;74.43;14.80;;;;;;;;;;5099000;28;20466;-72
2022/03/31 09:05:05;;;;;;;73.50;14.67;;;;;;;;;;5096715;28;20523;-71
2022/03/31 09:07:34;;;;;;;76.03;15.53;;;;;;;;;;5095303;28;20466;-73
2022/03/31 09:10:01;;;;;;;75.73;15.40;;;;;;;;;;5095437;28;20531;-74
2022/03/31 09:12:37;;;;;;;72.40;14.50;;;;;;;;;;5095475;28;20529;-75
2022/03/31 09:15:11;;;;;;;75.47;15.00;;;;;;;;;;5098869;28;20972;-74
2022/03/31 09:17:38;;;;;;;71.97;13.97;;;;;;;;;;5096233;28;21029;-72
2022/03/31 09:20:06;;;;;;;75.93;15.40;;;;;;;;;;5096660;28;20832;-73
2022/03/31 09:22:44;;;;;;;74.67;14.73;;;;;;;;;;5096401;28;20505;-73
2022/03/31 09:25:12;;;;;;;74.40;14.83;;;;;;;;;;5098546;28;20481;-73
2022/03/31 09:27:39;;;;;;;80.33;17.07;;;;;;;;;;5096045;28;20466;-74
2022/03/31 09:30:07;;;;;;;73.60;14.57;;;;;;;;;;5097462;28;20449;-73
2022/03/31 09:32:35;;;;;;;73.80;14.93;;;;;;;;;;5098284;28;20513;-73
2022/03/31 09:35:08;;;;;;;77.97;15.90;;;;;;;;;;5100061;28;20446;-71
2022/03/31 09:37:36;;;;;;;73.00;14.10;;;;;;;;;;5095715;28;20553;-72
2022/03/31 09:40:04;;;;;;;74.47;15.53;;;;;;;;;;5098414;28;20537;-73
2022/03/31 09:42:31;;;;;;;72.00;14.30;;;;;;;;;;5096422;28;20498;-71
2022/03/31 09:44:58;;;;;;;75.70;16.27;;;;;;;;;;5095669;28;20533;-73
2022/03/31 09:47:28;;;;;;;75.37;15.27;;;;;;;;;;5095211;28;20479;-72
2022/03/31 09:49:55;;;;;;;73.93;14.80;;;;;;;;;;5095077;28;20454;-71
2022/03/31 09:52:23;;;;;;;76.33;16.17;;;;;;;;;;5094438;28;20876;-70
2022/03/31 09:54:52;;;;;;;74.43;16.50;;;;;;;;;;5094603;28;20810;-70
2022/03/31 09:57:22;;;;;;;76.00;15.90;;;;;;;;;;5093413;28;20880;-70
2022/03/31 09:59:51;;;;;;;75.93;14.33;;;;;;;;;;5096788;28;20482;-72
2022/03/31 10:02:19;;;;;;;79.00;16.00;;;;;;;;;;5093907;28;20522;-72
2022/03/31 10:04:47;;;;;;;74.33;15.43;;;;;;;;;;5093885;28;20442;-70
2022/03/31 10:07:14;;;;;;;78.13;17.30;;;;;;;;;;5093020;28;21008;-70
2022/03/31 10:09:43;;;;;;;73.67;15.67;;;;;;;;;;5094265;28;20458;-71
2022/03/31 10:12:16;;;;;;;74.27;15.13;;;;;;;;;;5094039;28;20487;-72
2022/03/31 10:14:46;;;;;;;73.90;15.13;;;;;;;;;;5094842;28;20549;-73
2022/03/31 10:17:15;;;;;;;72.87;14.60;;;;;;;;;;5093127;28;20475;-72
2022/03/31 10:19:44;;;;;;;74.40;15.30;;;;;;;;;;5094175;28;20881;-73
2022/03/31 10:24:41;;;;;;;76.87;16.67;;;;;;;;;;5093581;28;20446;-73
2022/03/31 10:24:58;;;;;;;72.70;14.70;;;;;;;;;;5093184;28;20435;-71
2022/03/31 10:27:28;;;;;;;74.77;15.13;;;;;;;;;;5093090;28;20463;-73
2022/03/31 10:29:56;;;;;;;71.87;14.00;;;;;;;;;;5093744;28;20830;-74
2022/03/31 10:32:24;;;;;;;76.87;15.37;;;;;;;;;;5093481;28;20487;-73
2022/03/31 10:34:53;;;;;;;76.17;16.03;;;;;;;;;;5093858;28;20448;-72
2022/03/31 10:37:32;;;;;;;74.90;15.60;;;;;;;;;;5092890;28;20476;-73
2022/03/31 10:40:00;;;;;;;73.13;13.77;;;;;;;;;;5093886;28;20461;-73
2022/03/31 10:42:28;;;;;;;74.10;15.13;;;;;;;;;;5093262;28;20536;-73
2022/03/31 10:45:06;;;;;;;77.60;17.43;;;;;;;;;;5093072;28;20864;-73
2022/03/31 10:47:33;;;;;;;76.00;14.83;;;;;;;;;;5092637;28;20462;-73
2022/03/31 10:50:01;;;;;;;77.17;17.33;;;;;;;;;;5092621;28;20939;-72
2022/03/31 10:52:29;;;;;;;74.90;15.07;;;;;;;;;;5093199;28;20536;-72
2022/03/31 10:55:05;;;;;;;75.83;15.97;;;;;;;;;;5106865;28;20457;-72
2022/03/31 10:57:40;;;;;;;73.50;15.83;;;;;;;;;;5112054;28;20560;-72
2022/03/31 11:00:08;;;;;;;75.20;15.67;;;;;;;;;;5113539;28;20543;-73
2022/03/31 11:02:40;;;;;;;74.17;15.10;;;;;;;;;;5116341;28;20449;-73
2022/03/31 11:05:08;;;;;;;77.97;16.83;;;;;;;;;;5114602;28;20477;-70
2022/03/31 11:07:35;;;;;;;80.43;16.10;;;;;;;;;;5114159;28;20846;-70
2022/03/31 11:10:02;;;;;;;76.30;15.93;;;;;;;;;;5113357;28;20502;-70
2022/03/31 11:12:30;;;;;;;75.20;14.57;;;;;;;;;;5114131;28;20513;-69
2022/03/31 11:15:00;;;;;;;76.87;15.87;;;;;;;;;;5113382;28;20449;-69
2022/03/31 11:17:27;;;;;;;75.37;16.20;;;;;;;;;;5112895;28;20505;-71
2022/03/31 11:19:55;;;;;;;79.13;16.33;;;;;;;;;;5113657;28;21034;-73
2022/03/31 11:22:23;;;;;;;74.90;15.03;;;;;;;;;;5112809;28;20441;-69
2022/03/31 11:24:51;;;;;;;72.57;14.90;;;;;;;;;;5112980;28;20454;-72
2022/03/31 11:27:29;;;;;;;74.17;15.17;;;;;;;;;;5113921;27;20465;-72
2022/03/31 11:30:01;;;;;;;75.43;14.60;;;;;;;;;;5113911;28;20878;-72
2022/03/31 11:32:32;;;;;;;72.17;13.60;;;;;;;;;;5113628;28;20482;-74
2022/03/31 11:34:59;;;;;;;73.87;15.27;;;;;;;;;;5113786;28;20457;-72
2022/03/31 11:37:26;;;;;;;71.27;13.40;;;;;;;;;;5112644;28;20462;-73
2022/03/31 11:39:53;;;;;;;74.23;15.37;;;;;;;;;;5113852;28;20449;-70
2022/03/31 11:42:21;;;;;;;76.97;14.47;;;;;;;;;;5116049;28;20442;-73
2022/03/31 11:44:48;;;;;;;75.60;14.50;;;;;;;;;;5115886;28;20510;-71
2022/03/31 11:47:20;;;;;;;74.67;15.67;;;;;;;;;;5113348;28;20549;-72
2022/03/31 11:49:57;;;;;;;75.87;14.97;;;;;;;;;;5114290;28;20429;-71
2022/03/31 11:52:29;;;;;;;82.83;17.97;;;;;;;;;;5118624;28;20575;-72
2022/03/31 11:54:59;;;;;;;79.37;16.27;;;;;;;;;;5117504;28;21020;-71
2022/03/31 11:57:27;;;;;;;74.93;14.90;;;;;;;;;;5112557;28;20516;-72
2022/03/31 11:59:54;;;;;;;76.33;15.17;;;;;;;;;;5112531;28;20473;-72
2022/03/31 12:02:22;;;;;;;75.70;15.67;;;;;;;;;;5115004;28;20502;-73
2022/03/31 12:04:50;;;;;;;75.47;16.30;;;;;;;;;;5116202;28;20449;-72
2022/03/31 12:07:19;;;;;;;74.80;15.20;;;;;;;;;;5112432;28;20501;-71
2022/03/31 12:09:47;;;;;;;70.97;13.87;;;;;;;;;;5113324;28;20445;-72
2022/03/31 12:12:15;;;;;;;76.53;15.20;;;;;;;;;;5112410;28;20486;-69
2022/03/31 12:14:52;;;;;;;73.83;14.77;;;;;;;;;;5113843;28;20547;-72
2022/03/31 12:17:20;;;;;;;72.00;14.23;;;;;;;;;;5112415;28;20564;-72
2022/03/31 12:19:49;;;;;;;76.63;16.27;;;;;;;;;;5114608;28;20473;-73
2022/03/31 12:22:16;;;;;;;77.60;16.27;;;;;;;;;;5114825;28;20488;-71
2022/03/31 12:24:48;;;;;;;76.47;14.87;;;;;;;;;;5115007;28;20949;-72
2022/03/31 12:27:16;;;;;;;74.77;15.20;;;;;;;;;;5111141;28;20477;-71
2022/03/31 12:29:43;;;;;;;77.73;15.80;;;;;;;;;;5113470;28;20465;-71
2022/03/31 12:32:11;;;;;;;75.70;16.00;;;;;;;;;;5114773;28;20487;-73
2022/03/31 12:34:40;;;;;;;77.60;15.40;;;;;;;;;;5115076;28;20448;-72
2022/03/31 12:37:08;;;;;;;76.60;16.43;;;;;;;;;;5114602;28;20500;-71
2022/03/31 12:39:41;;;;;;;77.10;16.63;;;;;;;;;;5114935;28;20445;-72
2022/03/31 12:42:10;;;;;;;76.73;15.80;;;;;;;;;;5113027;28;20441;-73
2022/03/31 12:44:40;;;;;;;78.67;15.27;;;;;;;;;;5114424;28;20455;-74
2022/03/31 12:47:07;;;;;;;73.67;13.70;;;;;;;;;;5113538;28;20500;-71
2022/03/31 12:49:35;;;;;;;76.83;15.13;;;;;;;;;;5112346;28;20439;-73
2022/03/31 12:52:03;;;;;;;77.40;15.83;;;;;;;;;;5112411;28;20563;-72
2022/03/31 12:54:33;;;;;;;74.10;14.63;;;;;;;;;;5113347;28;20454;-73
2022/03/31 12:57:02;;;;;;;73.00;14.50;;;;;;;;;;5112297;28;20466;-73
2022/03/31 12:59:31;;;;;;;75.47;15.60;;;;;;;;;;5112410;28;20528;-73
2022/03/31 13:02:01;;;;;;;74.50;14.83;;;;;;;;;;5114844;28;20441;-73
2022/03/31 13:04:28;;;;;;;75.20;16.60;;;;;;;;;;5117375;28;20484;-73
2022/03/31 13:06:56;;;;;;;76.60;15.17;;;;;;;;;;5112070;28;20501;-72
2022/03/31 13:09:23;;;;;;;77.50;14.27;;;;;;;;;;5110885;28;20566;-72
2022/03/31 13:11:56;;;;;;;77.90;15.50;;;;;;;;;;5111112;28;20881;-72
2022/03/31 13:14:23;;;;;;;74.30;15.27;;;;;;;;;;5108212;28;20471;-72
2022/03/31 13:16:50;;;;;;;77.50;14.90;;;;;;;;;;5094781;28;21012;-72
2022/03/31 13:19:18;;;;;;;77.47;16.40;;;;;;;;;;5094735;28;20446;-72
2022/03/31 13:21:45;;;;;;;77.70;16.60;;;;;;;;;;5095480;28;20454;-71
2022/03/31 13:24:14;;;;;;;73.10;14.20;;;;;;;;;;5095049;28;20445;-71
2022/03/31 13:26:41;;;;;;;79.40;14.47;;;;;;;;;;5095979;28;20449;-70
2022/03/31 13:29:11;;;;;;;75.50;15.77;;;;;;;;;;5094728;28;20458;-72
2022/03/31 13:31:40;;;;;;;77.63;16.27;;;;;;;;;;5096143;28;20503;-72
2022/03/31 13:34:07;;;;;;;74.60;15.23;;;;;;;;;;5095921;28;20447;-71
2022/03/31 13:36:35;;;;;;;76.97;15.87;;;;;;;;;;5095695;28;20453;-71
2022/03/31 13:39:03;;;;;;;74.30;14.73;;;;;;;;;;5095655;28;20487;-72
2022/03/31 13:41:30;;;;;;;74.97;14.73;;;;;;;;;;5095543;28;20446;-71
2022/03/31 13:43:57;;;;;;;77.50;15.30;;;;;;;;;;5094588;28;20442;-72
2022/03/31 13:46:26;;;;;;;73.40;13.90;;;;;;;;;;5094686;28;20452;-71
2022/03/31 13:48:53;;;;;;;74.20;14.57;;;;;;;;;;5109545;28;21032;-70
2022/03/31 13:51:20;;;;;;;80.20;14.80;;;;;;;;;;5115683;28;20823;-71
2022/03/31 13:53:53;;;;;;;82.90;16.53;;;;;;;;;;5115717;28;20577;-71
2022/03/31 13:56:20;;;;;;;76.97;15.43;;;;;;;;;;5115927;28;20449;-72
2022/03/31 14:01:35;;;;;;;74.23;16.03;;;;;;;;;;5116783;28;20504;-72
2022/03/31 14:04:03;;;;;;;75.83;16.33;;;;;;;;;;5116138;28;20442;-72
2022/03/31 14:06:30;;;;;;;88.10;15.57;;;;;;;;;;5117128;28;20549;-72
2022/03/31 14:09:02;;;;;;;77.10;16.17;;;;;;;;;;5115624;28;20446;-71
2022/03/31 14:11:32;;;;;;;79.23;16.67;;;;;;;;;;5116028;28;20441;-71
2022/03/31 14:14:00;;;;;;;78.47;15.50;;;;;;;;;;5115663;28;20512;-71
2022/03/31 14:16:29;;;;;;;80.13;17.97;;;;;;;;;;5115750;28;20453;-71
2022/03/31 14:18:58;;;;;;;79.03;16.97;;;;;;;;;;5105108;27;20453;-71
2022/03/31 14:21:26;;;;;;;81.03;17.57;;;;;;;;;;5094280;28;20452;-72
2022/03/31 14:23:54;;;;;;;79.77;18.50;;;;;;;;;;5093103;28;20452;-72
2022/03/31 14:26:21;;;;;;;83.10;17.00;;;;;;;;;;5094265;28;20446;-72